sensor_id;sensor_type;location;lat;lon;timestamp;P1;durP1;ratioP1;P2;durP2;ratioP2
52564;SDS011;38460;53.106;7.004;2022-08-03T00:02:15;8.23;;;4.25;;
52564;SDS011;38460;53.106;7.004;2022-08-03T00:04:40;9.35;;;3.67;;
52564;SDS011;38460;53.106;7.004;2022-08-03T00:07:06;7.82;;;4.38;;
52564;SDS011;38460;53.106;7.004;2022-08-03T00:09:32;9.32;;;3.92;;
52564;SDS011;38460;53.106;7.004;2022-08-03T00:11:57;9.13;;;3.95;;
52564;SDS011;38460;53.106;7.004;2022-08-03T00:14:23;6.63;;;3.67;;
52564;SDS011;38460;53.106;7.004;2022-08-03T00:16:49;6.00;;;3.35;;
52564;SDS011;38460;53.106;7.004;2022-08-03T00:19:15;4.78;;;3.40;;
52564;SDS011;38460;53.106;7.004;2022-08-03T00:21:40;7.10;;;3.10;;
52564;SDS011;38460;53.106;7.004;2022-08-03T00:24:06;9.18;;;3.58;;
52564;SDS011;38460;53.106;7.004;2022-08-03T00:26:32;7.20;;;3.42;;
52564;SDS011;38460;53.106;7.004;2022-08-03T00:28:57;8.15;;;3.47;;
52564;SDS011;38460;53.106;7.004;2022-08-03T00:31:23;6.50;;;3.10;;
52564;SDS011;38460;53.106;7.004;2022-08-03T00:33:49;7.25;;;3.20;;
52564;SDS011;38460;53.106;7.004;2022-08-03T00:36:14;6.57;;;3.50;;
52564;SDS011;38460;53.106;7.004;2022-08-03T00:38:40;11.32;;;3.88;;
52564;SDS011;38460;53.106;7.004;2022-08-03T00:41:06;8.38;;;3.50;;
52564;SDS011;38460;53.106;7.004;2022-08-03T00:43:31;8.23;;;3.30;;
52564;SDS011;38460;53.106;7.004;2022-08-03T00:45:58;8.02;;;4.00;;
52564;SDS011;38460;53.106;7.004;2022-08-03T00:48:24;7.20;;;3.28;;
52564;SDS011;38460;53.106;7.004;2022-08-03T00:50:49;7.25;;;3.60;;
52564;SDS011;38460;53.106;7.004;2022-08-03T00:53:15;8.25;;;3.63;;
52564;SDS011;38460;53.106;7.004;2022-08-03T00:55:41;7.20;;;3.17;;
52564;SDS011;38460;53.106;7.004;2022-08-03T00:58:07;6.55;;;3.00;;
52564;SDS011;38460;53.106;7.004;2022-08-03T01:00:36;8.20;;;2.95;;
52564;SDS011;38460;53.106;7.004;2022-08-03T01:03:04;6.75;;;3.08;;
52564;SDS011;38460;53.106;7.004;2022-08-03T01:05:32;8.38;;;2.92;;
52564;SDS011;38460;53.106;7.004;2022-08-03T01:08:11;5.80;;;2.75;;
52564;SDS011;38460;53.106;7.004;2022-08-03T01:13:33;4.32;;;2.45;;
52564;SDS011;38460;53.106;7.004;2022-08-03T01:16:05;5.57;;;2.72;;
52564;SDS011;38460;53.106;7.004;2022-08-03T01:21:02;7.70;;;2.50;;
52564;SDS011;38460;53.106;7.004;2022-08-03T01:26:41;6.05;;;2.38;;
52564;SDS011;38460;53.106;7.004;2022-08-03T01:34:42;5.75;;;2.50;;
52564;SDS011;38460;53.106;7.004;2022-08-03T01:37:13;7.60;;;2.33;;
52564;SDS011;38460;53.106;7.004;2022-08-03T01:39:43;4.95;;;2.65;;
52564;SDS011;38460;53.106;7.004;2022-08-03T01:42:09;7.10;;;2.83;;
52564;SDS011;38460;53.106;7.004;2022-08-03T01:44:39;5.93;;;2.58;;
52564;SDS011;38460;53.106;7.004;2022-08-03T01:47:07;5.47;;;2.72;;
52564;SDS011;38460;53.106;7.004;2022-08-03T01:49:38;5.78;;;2.63;;
52564;SDS011;38460;53.106;7.004;2022-08-03T01:52:07;5.53;;;2.75;;
52564;SDS011;38460;53.106;7.004;2022-08-03T01:54:35;9.75;;;2.70;;
52564;SDS011;38460;53.106;7.004;2022-08-03T01:57:04;5.80;;;2.72;;
52564;SDS011;38460;53.106;7.004;2022-08-03T01:59:33;5.60;;;2.60;;
52564;SDS011;38460;53.106;7.004;2022-08-03T02:02:00;5.03;;;3.05;;
52564;SDS011;38460;53.106;7.004;2022-08-03T02:04:27;5.03;;;2.90;;
52564;SDS011;38460;53.106;7.004;2022-08-03T02:06:54;9.80;;;2.78;;
52564;SDS011;38460;53.106;7.004;2022-08-03T02:09:21;4.97;;;2.78;;
52564;SDS011;38460;53.106;7.004;2022-08-03T02:11:48;4.13;;;2.35;;
52564;SDS011;38460;53.106;7.004;2022-08-03T02:14:15;4.45;;;2.72;;
52564;SDS011;38460;53.106;7.004;2022-08-03T02:16:43;4.72;;;2.65;;
52564;SDS011;38460;53.106;7.004;2022-08-03T02:19:10;5.95;;;2.47;;
52564;SDS011;38460;53.106;7.004;2022-08-03T02:21:36;6.00;;;2.70;;
52564;SDS011;38460;53.106;7.004;2022-08-03T02:24:03;5.30;;;2.55;;
52564;SDS011;38460;53.106;7.004;2022-08-03T02:26:30;7.53;;;3.55;;
52564;SDS011;38460;53.106;7.004;2022-08-03T02:29:07;9.25;;;3.17;;
52564;SDS011;38460;53.106;7.004;2022-08-03T02:34:06;5.00;;;3.00;;
52564;SDS011;38460;53.106;7.004;2022-08-03T02:36:36;7.38;;;2.95;;
52564;SDS011;38460;53.106;7.004;2022-08-03T02:39:04;9.15;;;3.00;;
52564;SDS011;38460;53.106;7.004;2022-08-03T02:41:37;8.68;;;3.42;;
52564;SDS011;38460;53.106;7.004;2022-08-03T02:44:08;8.95;;;3.05;;
52564;SDS011;38460;53.106;7.004;2022-08-03T02:46:40;6.05;;;2.97;;
52564;SDS011;38460;53.106;7.004;2022-08-03T02:49:09;7.60;;;2.97;;
52564;SDS011;38460;53.106;7.004;2022-08-03T02:51:37;8.23;;;3.38;;
52564;SDS011;38460;53.106;7.004;2022-08-03T02:54:04;7.72;;;3.38;;
52564;SDS011;38460;53.106;7.004;2022-08-03T02:56:33;7.38;;;3.78;;
52564;SDS011;38460;53.106;7.004;2022-08-03T02:59:01;6.13;;;3.05;;
52564;SDS011;38460;53.106;7.004;2022-08-03T03:01:28;6.88;;;3.40;;
52564;SDS011;38460;53.106;7.004;2022-08-03T03:03:55;6.88;;;3.88;;
52564;SDS011;38460;53.106;7.004;2022-08-03T03:06:22;6.38;;;3.03;;
52564;SDS011;38460;53.106;7.004;2022-08-03T03:08:50;7.22;;;3.70;;
52564;SDS011;38460;53.106;7.004;2022-08-03T03:11:17;5.10;;;3.28;;
52564;SDS011;38460;53.106;7.004;2022-08-03T03:13:45;7.72;;;3.67;;
52564;SDS011;38460;53.106;7.004;2022-08-03T03:16:14;5.90;;;3.58;;
52564;SDS011;38460;53.106;7.004;2022-08-03T03:18:41;9.30;;;3.15;;
52564;SDS011;38460;53.106;7.004;2022-08-03T03:21:09;5.90;;;3.55;;
52564;SDS011;38460;53.106;7.004;2022-08-03T03:23:36;6.40;;;3.55;;
52564;SDS011;38460;53.106;7.004;2022-08-03T03:26:03;10.30;;;4.05;;
52564;SDS011;38460;53.106;7.004;2022-08-03T03:28:30;8.18;;;3.45;;
52564;SDS011;38460;53.106;7.004;2022-08-03T03:30:56;8.43;;;3.30;;
52564;SDS011;38460;53.106;7.004;2022-08-03T03:33:23;4.82;;;2.80;;
52564;SDS011;38460;53.106;7.004;2022-08-03T03:35:49;10.55;;;3.65;;
52564;SDS011;38460;53.106;7.004;2022-08-03T03:38:16;8.27;;;3.50;;
52564;SDS011;38460;53.106;7.004;2022-08-03T03:40:43;6.80;;;3.40;;
52564;SDS011;38460;53.106;7.004;2022-08-03T03:43:09;6.68;;;3.20;;
52564;SDS011;38460;53.106;7.004;2022-08-03T03:45:36;7.85;;;4.03;;
52564;SDS011;38460;53.106;7.004;2022-08-03T03:48:05;7.75;;;3.80;;
52564;SDS011;38460;53.106;7.004;2022-08-03T03:50:32;10.23;;;4.13;;
52564;SDS011;38460;53.106;7.004;2022-08-03T03:53:00;7.15;;;3.35;;
52564;SDS011;38460;53.106;7.004;2022-08-03T03:55:26;6.70;;;3.50;;
52564;SDS011;38460;53.106;7.004;2022-08-03T03:57:53;9.85;;;3.72;;
52564;SDS011;38460;53.106;7.004;2022-08-03T04:00:19;5.95;;;3.10;;
52564;SDS011;38460;53.106;7.004;2022-08-03T04:02:45;5.90;;;3.78;;
52564;SDS011;38460;53.106;7.004;2022-08-03T04:05:11;6.97;;;3.40;;
52564;SDS011;38460;53.106;7.004;2022-08-03T04:07:57;8.05;;;3.83;;
52564;SDS011;38460;53.106;7.004;2022-08-03T04:16:15;9.30;;;3.50;;
52564;SDS011;38460;53.106;7.004;2022-08-03T04:18:43;7.82;;;3.63;;
52564;SDS011;38460;53.106;7.004;2022-08-03T04:21:14;7.18;;;3.63;;
52564;SDS011;38460;53.106;7.004;2022-08-03T04:23:43;8.05;;;3.67;;
52564;SDS011;38460;53.106;7.004;2022-08-03T04:26:13;5.15;;;3.10;;
52564;SDS011;38460;53.106;7.004;2022-08-03T04:28:43;7.43;;;3.78;;
52564;SDS011;38460;53.106;7.004;2022-08-03T04:31:11;8.68;;;3.97;;
52564;SDS011;38460;53.106;7.004;2022-08-03T04:33:38;7.95;;;3.92;;
52564;SDS011;38460;53.106;7.004;2022-08-03T04:36:07;10.45;;;4.43;;
52564;SDS011;38460;53.106;7.004;2022-08-03T04:38:39;7.30;;;3.80;;
52564;SDS011;38460;53.106;7.004;2022-08-03T04:41:14;6.68;;;4.05;;
52564;SDS011;38460;53.106;7.004;2022-08-03T04:43:41;8.52;;;3.95;;
52564;SDS011;38460;53.106;7.004;2022-08-03T04:46:07;9.43;;;3.67;;
52564;SDS011;38460;53.106;7.004;2022-08-03T04:48:34;7.43;;;3.92;;
52564;SDS011;38460;53.106;7.004;2022-08-03T04:51:00;7.18;;;3.72;;
52564;SDS011;38460;53.106;7.004;2022-08-03T04:53:28;7.88;;;4.28;;
52564;SDS011;38460;53.106;7.004;2022-08-03T04:56:02;9.70;;;4.70;;
52564;SDS011;38460;53.106;7.004;2022-08-03T04:58:29;5.90;;;4.10;;
52564;SDS011;38460;53.106;7.004;2022-08-03T05:00:55;7.85;;;3.47;;
52564;SDS011;38460;53.106;7.004;2022-08-03T05:03:20;7.57;;;3.42;;
52564;SDS011;38460;53.106;7.004;2022-08-03T05:05:46;9.05;;;3.72;;
52564;SDS011;38460;53.106;7.004;2022-08-03T05:08:12;7.00;;;3.78;;
52564;SDS011;38460;53.106;7.004;2022-08-03T05:10:37;6.78;;;3.50;;
52564;SDS011;38460;53.106;7.004;2022-08-03T05:13:03;8.88;;;3.88;;
52564;SDS011;38460;53.106;7.004;2022-08-03T05:15:29;14.30;;;3.75;;
52564;SDS011;38460;53.106;7.004;2022-08-03T05:17:54;7.90;;;3.40;;
52564;SDS011;38460;53.106;7.004;2022-08-03T05:20:20;7.53;;;3.15;;
52564;SDS011;38460;53.106;7.004;2022-08-03T05:22:46;7.60;;;3.40;;
52564;SDS011;38460;53.106;7.004;2022-08-03T05:25:12;6.30;;;3.05;;
52564;SDS011;38460;53.106;7.004;2022-08-03T05:27:37;9.02;;;3.17;;
52564;SDS011;38460;53.106;7.004;2022-08-03T05:30:03;9.85;;;3.67;;
52564;SDS011;38460;53.106;7.004;2022-08-03T05:32:29;8.52;;;3.30;;
52564;SDS011;38460;53.106;7.004;2022-08-03T05:34:55;8.65;;;3.33;;
52564;SDS011;38460;53.106;7.004;2022-08-03T05:37:21;7.53;;;3.53;;
52564;SDS011;38460;53.106;7.004;2022-08-03T05:39:46;6.00;;;3.08;;
52564;SDS011;38460;53.106;7.004;2022-08-03T05:42:14;7.93;;;3.47;;
52564;SDS011;38460;53.106;7.004;2022-08-03T05:44:40;9.20;;;3.28;;
52564;SDS011;38460;53.106;7.004;2022-08-03T05:47:06;6.43;;;3.05;;
52564;SDS011;38460;53.106;7.004;2022-08-03T05:49:32;7.70;;;3.22;;
52564;SDS011;38460;53.106;7.004;2022-08-03T05:51:58;7.63;;;3.25;;
52564;SDS011;38460;53.106;7.004;2022-08-03T05:54:23;6.20;;;3.08;;
52564;SDS011;38460;53.106;7.004;2022-08-03T05:56:49;7.13;;;3.25;;
52564;SDS011;38460;53.106;7.004;2022-08-03T05:59:15;7.00;;;3.22;;
52564;SDS011;38460;53.106;7.004;2022-08-03T06:01:40;9.07;;;2.83;;
52564;SDS011;38460;53.106;7.004;2022-08-03T06:04:06;5.63;;;3.00;;
52564;SDS011;38460;53.106;7.004;2022-08-03T06:06:32;6.43;;;3.75;;
52564;SDS011;38460;53.106;7.004;2022-08-03T06:08:57;6.85;;;3.30;;
52564;SDS011;38460;53.106;7.004;2022-08-03T06:11:23;5.03;;;3.10;;
52564;SDS011;38460;53.106;7.004;2022-08-03T06:13:49;11.15;;;3.92;;
52564;SDS011;38460;53.106;7.004;2022-08-03T06:16:14;8.90;;;3.28;;
52564;SDS011;38460;53.106;7.004;2022-08-03T06:18:40;7.60;;;3.15;;
52564;SDS011;38460;53.106;7.004;2022-08-03T06:21:06;7.95;;;3.20;;
52564;SDS011;38460;53.106;7.004;2022-08-03T06:23:32;7.95;;;3.30;;
52564;SDS011;38460;53.106;7.004;2022-08-03T06:25:58;10.20;;;3.45;;
52564;SDS011;38460;53.106;7.004;2022-08-03T06:28:23;9.32;;;3.80;;
52564;SDS011;38460;53.106;7.004;2022-08-03T06:30:49;6.50;;;3.05;;
52564;SDS011;38460;53.106;7.004;2022-08-03T06:33:15;6.43;;;3.35;;
52564;SDS011;38460;53.106;7.004;2022-08-03T06:35:41;9.90;;;3.35;;
52564;SDS011;38460;53.106;7.004;2022-08-03T06:38:06;8.07;;;4.18;;
52564;SDS011;38460;53.106;7.004;2022-08-03T06:40:34;8.88;;;3.08;;
52564;SDS011;38460;53.106;7.004;2022-08-03T06:43:04;7.75;;;3.35;;
52564;SDS011;38460;53.106;7.004;2022-08-03T06:45:30;9.75;;;3.50;;
52564;SDS011;38460;53.106;7.004;2022-08-03T06:48:07;11.77;;;3.67;;
52564;SDS011;38460;53.106;7.004;2022-08-03T06:50:40;9.27;;;4.22;;
52564;SDS011;38460;53.106;7.004;2022-08-03T06:53:06;10.95;;;4.05;;
52564;SDS011;38460;53.106;7.004;2022-08-03T06:55:35;10.23;;;3.83;;
52564;SDS011;38460;53.106;7.004;2022-08-03T06:58:01;10.88;;;3.83;;
52564;SDS011;38460;53.106;7.004;2022-08-03T07:00:27;8.70;;;3.15;;
52564;SDS011;38460;53.106;7.004;2022-08-03T07:02:53;7.82;;;3.53;;
52564;SDS011;38460;53.106;7.004;2022-08-03T07:05:19;7.90;;;3.90;;
52564;SDS011;38460;53.106;7.004;2022-08-03T07:07:44;7.97;;;3.22;;
52564;SDS011;38460;53.106;7.004;2022-08-03T07:10:10;9.93;;;3.63;;
52564;SDS011;38460;53.106;7.004;2022-08-03T07:12:36;13.23;;;3.70;;
52564;SDS011;38460;53.106;7.004;2022-08-03T07:15:03;8.88;;;3.40;;
52564;SDS011;38460;53.106;7.004;2022-08-03T07:17:30;7.10;;;3.78;;
52564;SDS011;38460;53.106;7.004;2022-08-03T07:19:57;11.73;;;3.25;;
52564;SDS011;38460;53.106;7.004;2022-08-03T07:22:24;8.73;;;3.53;;
52564;SDS011;38460;53.106;7.004;2022-08-03T07:24:50;10.25;;;3.38;;
52564;SDS011;38460;53.106;7.004;2022-08-03T07:27:16;9.43;;;3.60;;
52564;SDS011;38460;53.106;7.004;2022-08-03T07:29:41;10.52;;;3.50;;
52564;SDS011;38460;53.106;7.004;2022-08-03T07:32:07;8.88;;;3.17;;
52564;SDS011;38460;53.106;7.004;2022-08-03T07:34:33;7.78;;;3.65;;
52564;SDS011;38460;53.106;7.004;2022-08-03T07:36:59;7.43;;;2.92;;
52564;SDS011;38460;53.106;7.004;2022-08-03T07:39:24;8.27;;;3.90;;
52564;SDS011;38460;53.106;7.004;2022-08-03T07:41:50;8.30;;;2.75;;
52564;SDS011;38460;53.106;7.004;2022-08-03T07:44:16;9.43;;;3.75;;
52564;SDS011;38460;53.106;7.004;2022-08-03T07:46:43;12.13;;;3.78;;
52564;SDS011;38460;53.106;7.004;2022-08-03T07:49:09;10.57;;;3.90;;
52564;SDS011;38460;53.106;7.004;2022-08-03T07:51:35;10.05;;;3.83;;
52564;SDS011;38460;53.106;7.004;2022-08-03T07:54:00;10.48;;;4.10;;
52564;SDS011;38460;53.106;7.004;2022-08-03T07:56:26;7.90;;;3.63;;
52564;SDS011;38460;53.106;7.004;2022-08-03T07:58:53;10.93;;;3.70;;
52564;SDS011;38460;53.106;7.004;2022-08-03T08:01:19;12.63;;;3.75;;
52564;SDS011;38460;53.106;7.004;2022-08-03T08:03:45;7.03;;;2.95;;
52564;SDS011;38460;53.106;7.004;2022-08-03T08:06:11;9.13;;;3.63;;
52564;SDS011;38460;53.106;7.004;2022-08-03T08:08:38;10.48;;;3.70;;
52564;SDS011;38460;53.106;7.004;2022-08-03T08:11:04;9.40;;;3.60;;
52564;SDS011;38460;53.106;7.004;2022-08-03T08:13:30;8.20;;;3.05;;
52564;SDS011;38460;53.106;7.004;2022-08-03T08:15:55;6.97;;;2.95;;
52564;SDS011;38460;53.106;7.004;2022-08-03T08:18:21;9.52;;;3.38;;
52564;SDS011;38460;53.106;7.004;2022-08-03T08:20:48;10.18;;;3.13;;
52564;SDS011;38460;53.106;7.004;2022-08-03T08:23:14;9.43;;;3.38;;
52564;SDS011;38460;53.106;7.004;2022-08-03T08:25:46;9.93;;;3.58;;
52564;SDS011;38460;53.106;7.004;2022-08-03T08:28:13;9.23;;;2.72;;
52564;SDS011;38460;53.106;7.004;2022-08-03T08:30:41;9.10;;;3.25;;
52564;SDS011;38460;53.106;7.004;2022-08-03T08:33:07;8.45;;;3.53;;
52564;SDS011;38460;53.106;7.004;2022-08-03T08:35:32;9.90;;;3.55;;
52564;SDS011;38460;53.106;7.004;2022-08-03T08:37:59;10.98;;;3.47;;
52564;SDS011;38460;53.106;7.004;2022-08-03T08:40:25;8.20;;;3.35;;
52564;SDS011;38460;53.106;7.004;2022-08-03T08:42:52;6.70;;;2.47;;
52564;SDS011;38460;53.106;7.004;2022-08-03T08:45:18;10.40;;;3.00;;
52564;SDS011;38460;53.106;7.004;2022-08-03T08:47:44;11.80;;;3.40;;
52564;SDS011;38460;53.106;7.004;2022-08-03T08:50:11;10.15;;;2.97;;
52564;SDS011;38460;53.106;7.004;2022-08-03T08:52:40;11.02;;;3.28;;
52564;SDS011;38460;53.106;7.004;2022-08-03T08:55:12;6.63;;;2.88;;
52564;SDS011;38460;53.106;7.004;2022-08-03T08:57:42;8.75;;;3.05;;
52564;SDS011;38460;53.106;7.004;2022-08-03T09:02:38;9.48;;;2.90;;
52564;SDS011;38460;53.106;7.004;2022-08-03T09:05:17;8.25;;;3.22;;
52564;SDS011;38460;53.106;7.004;2022-08-03T09:07:46;10.25;;;3.92;;
52564;SDS011;38460;53.106;7.004;2022-08-03T09:10:13;7.22;;;3.08;;
52564;SDS011;38460;53.106;7.004;2022-08-03T09:12:45;9.32;;;3.20;;
52564;SDS011;38460;53.106;7.004;2022-08-03T09:15:17;7.65;;;3.28;;
52564;SDS011;38460;53.106;7.004;2022-08-03T09:17:43;7.70;;;3.05;;
52564;SDS011;38460;53.106;7.004;2022-08-03T09:20:08;8.27;;;3.03;;
52564;SDS011;38460;53.106;7.004;2022-08-03T09:22:35;10.13;;;2.85;;
52564;SDS011;38460;53.106;7.004;2022-08-03T09:25:15;6.32;;;2.92;;
52564;SDS011;38460;53.106;7.004;2022-08-03T09:27:44;9.40;;;3.13;;
52564;SDS011;38460;53.106;7.004;2022-08-03T09:30:15;10.13;;;3.55;;
52564;SDS011;38460;53.106;7.004;2022-08-03T09:32:42;10.25;;;3.22;;
52564;SDS011;38460;53.106;7.004;2022-08-03T09:35:10;10.10;;;3.55;;
52564;SDS011;38460;53.106;7.004;2022-08-03T09:37:37;11.00;;;3.55;;
52564;SDS011;38460;53.106;7.004;2022-08-03T09:40:04;9.13;;;3.38;;
52564;SDS011;38460;53.106;7.004;2022-08-03T09:42:30;8.68;;;3.38;;
52564;SDS011;38460;53.106;7.004;2022-08-03T09:44:59;10.48;;;3.78;;
52564;SDS011;38460;53.106;7.004;2022-08-03T09:47:29;11.07;;;3.45;;
52564;SDS011;38460;53.106;7.004;2022-08-03T09:49:59;10.75;;;2.88;;
52564;SDS011;38460;53.106;7.004;2022-08-03T09:52:30;8.80;;;3.20;;
52564;SDS011;38460;53.106;7.004;2022-08-03T09:54:56;7.43;;;2.92;;
52564;SDS011;38460;53.106;7.004;2022-08-03T09:57:23;5.70;;;3.05;;
52564;SDS011;38460;53.106;7.004;2022-08-03T09:59:50;7.75;;;3.30;;
52564;SDS011;38460;53.106;7.004;2022-08-03T10:02:21;8.10;;;2.92;;
52564;SDS011;38460;53.106;7.004;2022-08-03T10:04:49;8.00;;;3.28;;
52564;SDS011;38460;53.106;7.004;2022-08-03T10:07:17;8.15;;;3.00;;
52564;SDS011;38460;53.106;7.004;2022-08-03T10:09:57;11.52;;;2.97;;
52564;SDS011;38460;53.106;7.004;2022-08-03T10:12:24;11.35;;;3.58;;
52564;SDS011;38460;53.106;7.004;2022-08-03T10:14:51;8.25;;;3.15;;
52564;SDS011;38460;53.106;7.004;2022-08-03T10:17:18;7.78;;;3.00;;
52564;SDS011;38460;53.106;7.004;2022-08-03T10:19:44;7.18;;;3.53;;
52564;SDS011;38460;53.106;7.004;2022-08-03T10:22:53;10.70;;;3.53;;
52564;SDS011;38460;53.106;7.004;2022-08-03T10:27:35;6.30;;;2.67;;
52564;SDS011;38460;53.106;7.004;2022-08-03T10:30:06;6.47;;;3.15;;
52564;SDS011;38460;53.106;7.004;2022-08-03T10:32:43;7.22;;;3.25;;
52564;SDS011;38460;53.106;7.004;2022-08-03T10:35:14;8.80;;;3.20;;
52564;SDS011;38460;53.106;7.004;2022-08-03T10:38:08;7.38;;;3.00;;
52564;SDS011;38460;53.106;7.004;2022-08-03T10:40:34;9.43;;;3.53;;
52564;SDS011;38460;53.106;7.004;2022-08-03T10:43:02;10.23;;;3.30;;
52564;SDS011;38460;53.106;7.004;2022-08-03T10:45:42;10.15;;;3.30;;
52564;SDS011;38460;53.106;7.004;2022-08-03T10:48:10;7.75;;;2.72;;
52564;SDS011;38460;53.106;7.004;2022-08-03T10:50:37;9.80;;;3.40;;
52564;SDS011;38460;53.106;7.004;2022-08-03T10:53:05;11.10;;;3.25;;
52564;SDS011;38460;53.106;7.004;2022-08-03T10:55:39;8.48;;;2.80;;
52564;SDS011;38460;53.106;7.004;2022-08-03T11:01:08;9.05;;;2.92;;
52564;SDS011;38460;53.106;7.004;2022-08-03T11:04:13;10.70;;;3.57;;
52564;SDS011;38460;53.106;7.004;2022-08-03T11:06:30;8.98;;;3.17;;
52564;SDS011;38460;53.106;7.004;2022-08-03T11:14:05;6.88;;;2.92;;
52564;SDS011;38460;53.106;7.004;2022-08-03T11:16:42;9.05;;;3.08;;
52564;SDS011;38460;53.106;7.004;2022-08-03T11:19:11;10.13;;;2.92;;
52564;SDS011;38460;53.106;7.004;2022-08-03T11:35:13;9.23;;;3.08;;
52564;SDS011;38460;53.106;7.004;2022-08-03T11:46:05;10.95;;;3.00;;
52564;SDS011;38460;53.106;7.004;2022-08-03T11:48:33;10.20;;;2.90;;
52564;SDS011;38460;53.106;7.004;2022-08-03T11:51:03;10.13;;;2.55;;
52564;SDS011;38460;53.106;7.004;2022-08-03T11:53:43;10.90;;;2.80;;
52564;SDS011;38460;53.106;7.004;2022-08-03T11:56:11;11.45;;;3.05;;
52564;SDS011;38460;53.106;7.004;2022-08-03T11:58:44;9.82;;;3.17;;
52564;SDS011;38460;53.106;7.004;2022-08-03T12:01:17;8.75;;;3.17;;
52564;SDS011;38460;53.106;7.004;2022-08-03T12:03:44;12.20;;;3.45;;
52564;SDS011;38460;53.106;7.004;2022-08-03T12:06:11;11.77;;;3.15;;
52564;SDS011;38460;53.106;7.004;2022-08-03T12:08:38;10.65;;;2.55;;
52564;SDS011;38460;53.106;7.004;2022-08-03T12:11:06;8.73;;;2.70;;
52564;SDS011;38460;53.106;7.004;2022-08-03T12:13:43;10.13;;;2.83;;
52564;SDS011;38460;53.106;7.004;2022-08-03T12:16:18;9.70;;;2.72;;
52564;SDS011;38460;53.106;7.004;2022-08-03T12:18:53;7.97;;;3.13;;
52564;SDS011;38460;53.106;7.004;2022-08-03T12:21:23;9.60;;;3.08;;
52564;SDS011;38460;53.106;7.004;2022-08-03T12:23:49;10.57;;;3.17;;
52564;SDS011;38460;53.106;7.004;2022-08-03T12:26:15;9.10;;;2.90;;
52564;SDS011;38460;53.106;7.004;2022-08-03T12:28:47;10.40;;;3.03;;
52564;SDS011;38460;53.106;7.004;2022-08-03T12:31:16;9.15;;;2.70;;
52564;SDS011;38460;53.106;7.004;2022-08-03T12:33:56;8.10;;;2.55;;
52564;SDS011;38460;53.106;7.004;2022-08-03T12:36:31;10.25;;;2.53;;
52564;SDS011;38460;53.106;7.004;2022-08-03T12:38:59;6.13;;;2.40;;
52564;SDS011;38460;53.106;7.004;2022-08-03T12:41:33;8.02;;;2.88;;
52564;SDS011;38460;53.106;7.004;2022-08-03T12:44:02;12.07;;;3.28;;
52564;SDS011;38460;53.106;7.004;2022-08-03T12:54:23;10.50;;;3.00;;
52564;SDS011;38460;53.106;7.004;2022-08-03T12:59:31;10.93;;;2.80;;
52564;SDS011;38460;53.106;7.004;2022-08-03T13:01:58;8.30;;;2.40;;
52564;SDS011;38460;53.106;7.004;2022-08-03T13:04:26;7.15;;;2.15;;
52564;SDS011;38460;53.106;7.004;2022-08-03T13:06:59;8.95;;;2.67;;
52564;SDS011;38460;53.106;7.004;2022-08-03T13:09:27;9.73;;;2.83;;
52564;SDS011;38460;53.106;7.004;2022-08-03T13:14:53;7.18;;;2.80;;
52564;SDS011;38460;53.106;7.004;2022-08-03T13:17:20;9.18;;;2.80;;
52564;SDS011;38460;53.106;7.004;2022-08-03T13:19:47;7.47;;;2.55;;
52564;SDS011;38460;53.106;7.004;2022-08-03T13:22:17;9.48;;;2.90;;
52564;SDS011;38460;53.106;7.004;2022-08-03T13:24:44;12.60;;;3.15;;
52564;SDS011;38460;53.106;7.004;2022-08-03T13:27:12;8.80;;;2.72;;
52564;SDS011;38460;53.106;7.004;2022-08-03T13:29:38;8.27;;;2.47;;
52564;SDS011;38460;53.106;7.004;2022-08-03T13:32:04;8.57;;;3.00;;
52564;SDS011;38460;53.106;7.004;2022-08-03T13:34:31;8.85;;;2.60;;
52564;SDS011;38460;53.106;7.004;2022-08-03T13:36:56;9.02;;;2.22;;
52564;SDS011;38460;53.106;7.004;2022-08-03T13:39:22;12.13;;;2.70;;
52564;SDS011;38460;53.106;7.004;2022-08-03T13:41:48;9.82;;;2.28;;
52564;SDS011;38460;53.106;7.004;2022-08-03T13:44:14;7.47;;;2.30;;
52564;SDS011;38460;53.106;7.004;2022-08-03T13:46:40;6.90;;;2.30;;
52564;SDS011;38460;53.106;7.004;2022-08-03T13:49:06;5.60;;;2.40;;
52564;SDS011;38460;53.106;7.004;2022-08-03T13:51:33;5.60;;;1.95;;
52564;SDS011;38460;53.106;7.004;2022-08-03T13:53:59;5.68;;;1.83;;
52564;SDS011;38460;53.106;7.004;2022-08-03T13:56:25;8.13;;;2.17;;
52564;SDS011;38460;53.106;7.004;2022-08-03T13:58:51;6.15;;;2.00;;
52564;SDS011;38460;53.106;7.004;2022-08-03T14:01:17;6.65;;;1.90;;
52564;SDS011;38460;53.106;7.004;2022-08-03T14:03:43;5.00;;;1.65;;
52564;SDS011;38460;53.106;7.004;2022-08-03T14:06:10;5.70;;;1.60;;
52564;SDS011;38460;53.106;7.004;2022-08-03T14:08:36;9.80;;;2.20;;
52564;SDS011;38460;53.106;7.004;2022-08-03T14:11:02;11.43;;;1.92;;
52564;SDS011;38460;53.106;7.004;2022-08-03T14:13:27;6.95;;;1.73;;
52564;SDS011;38460;53.106;7.004;2022-08-03T14:15:53;5.55;;;1.67;;
52564;SDS011;38460;53.106;7.004;2022-08-03T14:18:19;6.90;;;2.00;;
52564;SDS011;38460;53.106;7.004;2022-08-03T14:20:46;4.97;;;1.60;;
52564;SDS011;38460;53.106;7.004;2022-08-03T14:23:12;5.25;;;1.65;;
52564;SDS011;38460;53.106;7.004;2022-08-03T14:25:39;3.72;;;1.60;;
52564;SDS011;38460;53.106;7.004;2022-08-03T14:28:05;8.32;;;1.80;;
52564;SDS011;38460;53.106;7.004;2022-08-03T14:30:32;5.28;;;2.22;;
52564;SDS011;38460;53.106;7.004;2022-08-03T14:32:58;6.28;;;1.52;;
52564;SDS011;38460;53.106;7.004;2022-08-03T14:35:23;7.35;;;2.17;;
52564;SDS011;38460;53.106;7.004;2022-08-03T14:37:49;5.85;;;1.77;;
52564;SDS011;38460;53.106;7.004;2022-08-03T14:40:16;8.52;;;1.95;;
52564;SDS011;38460;53.106;7.004;2022-08-03T14:42:42;7.75;;;2.10;;
52564;SDS011;38460;53.106;7.004;2022-08-03T14:45:08;6.47;;;2.20;;
52564;SDS011;38460;53.106;7.004;2022-08-03T14:47:34;6.68;;;2.45;;
52564;SDS011;38460;53.106;7.004;2022-08-03T14:50:00;9.32;;;2.50;;
52564;SDS011;38460;53.106;7.004;2022-08-03T14:52:29;9.68;;;3.00;;
52564;SDS011;38460;53.106;7.004;2022-08-03T14:54:55;6.68;;;2.03;;
52564;SDS011;38460;53.106;7.004;2022-08-03T14:57:20;8.80;;;2.47;;
52564;SDS011;38460;53.106;7.004;2022-08-03T14:59:46;8.57;;;2.53;;
52564;SDS011;38460;53.106;7.004;2022-08-03T15:02:12;8.63;;;2.42;;
52564;SDS011;38460;53.106;7.004;2022-08-03T15:04:38;9.23;;;2.33;;
52564;SDS011;38460;53.106;7.004;2022-08-03T15:07:04;7.47;;;2.50;;
52564;SDS011;38460;53.106;7.004;2022-08-03T15:09:29;9.60;;;2.42;;
52564;SDS011;38460;53.106;7.004;2022-08-03T15:11:55;8.32;;;2.70;;
52564;SDS011;38460;53.106;7.004;2022-08-03T15:14:21;9.13;;;2.40;;
52564;SDS011;38460;53.106;7.004;2022-08-03T15:16:47;9.30;;;2.88;;
52564;SDS011;38460;53.106;7.004;2022-08-03T15:19:12;7.57;;;2.30;;
52564;SDS011;38460;53.106;7.004;2022-08-03T15:21:38;8.00;;;2.67;;
52564;SDS011;38460;53.106;7.004;2022-08-03T15:24:04;8.32;;;2.30;;
52564;SDS011;38460;53.106;7.004;2022-08-03T15:26:30;7.72;;;2.75;;
52564;SDS011;38460;53.106;7.004;2022-08-03T15:28:56;10.25;;;2.65;;
52564;SDS011;38460;53.106;7.004;2022-08-03T15:31:22;9.52;;;2.88;;
52564;SDS011;38460;53.106;7.004;2022-08-03T15:33:49;8.82;;;2.67;;
52564;SDS011;38460;53.106;7.004;2022-08-03T15:36:18;7.60;;;2.65;;
52564;SDS011;38460;53.106;7.004;2022-08-03T15:38:44;7.47;;;2.45;;
52564;SDS011;38460;53.106;7.004;2022-08-03T15:41:13;9.50;;;2.47;;
52564;SDS011;38460;53.106;7.004;2022-08-03T15:43:40;5.80;;;2.30;;
52564;SDS011;38460;53.106;7.004;2022-08-03T15:46:06;11.00;;;2.90;;
52564;SDS011;38460;53.106;7.004;2022-08-03T15:48:32;7.07;;;2.35;;
52564;SDS011;38460;53.106;7.004;2022-08-03T15:50:58;7.47;;;2.50;;
52564;SDS011;38460;53.106;7.004;2022-08-03T15:53:24;6.72;;;2.05;;
52564;SDS011;38460;53.106;7.004;2022-08-03T15:55:50;8.30;;;2.30;;
52564;SDS011;38460;53.106;7.004;2022-08-03T15:58:15;7.60;;;2.13;;
52564;SDS011;38460;53.106;7.004;2022-08-03T16:00:41;4.43;;;2.00;;